Time;durP1;ratioP1;P1;durP2;ratioP2;P2;SDS_P1;SDS_P2;PMS_P1;PMS_P2;Temp;Humidity;BMP_temperature;BMP_pressure;BME280_temperature;BME280_humidity;BME280_pressure;Samples;Min_cycle;Max_cycle;Signal;HPM_P1;HPM_P2
2024/01/19 00:01:12;;;;;;;;;;;;;;;;;;5019875;28;60193;-75
2024/01/19 00:03:37;;;;;;;;;;;;;;;;;;5021004;28;59304;-75
2024/01/19 00:06:02;;;;;;;;;;;;;;;;;;5022458;28;60196;-75
2024/01/19 00:08:27;;;;;;;;;;;;;;;;;;5023644;28;60256;-75
2024/01/19 00:10:52;;;;;;;;;;;;;;;;;;5019705;28;59439;-75
2024/01/19 00:13:17;;;;;;;;;;;;;;;;;;5019790;28;60429;-74
2024/01/19 00:15:43;;;;;;;;;;;;;;;;;;5019979;28;59500;-73
2024/01/19 00:18:08;;;;;;;;;;;;;;;;;;5021819;28;59289;-73
2024/01/19 00:20:33;;;;;;;;;;;;;;;;;;5021577;28;61466;-73
2024/01/19 00:22:58;;;;;;;;;;;;;;;;;;5020461;28;59625;-73
2024/01/19 00:25:23;;;;;;;;;;;;;;;;;;5020360;28;59223;-73
2024/01/19 00:27:48;;;;;;;;;;;;;;;;;;5021525;28;61294;-73
2024/01/19 00:30:13;;;;;;;;;;;;;;;;;;5020566;28;61311;-74
2024/01/19 00:32:38;;;;;;;;;;;;;;;;;;5020429;28;59704;-73
2024/01/19 00:35:03;;;;;;;;;;;;;;;;;;5020882;28;59919;-72
2024/01/19 00:37:28;;;;;;;;;;;;;;;;;;5019191;28;59361;-73
2024/01/19 00:39:53;;;;;;;;;;;;;;;;;;5019301;28;60665;-74
2024/01/19 00:42:18;;;;;;;;;;;;;;;;;;5021419;28;59906;-73
2024/01/19 00:44:43;;;;;;;;;;;;;;;;;;5019118;28;59654;-73
2024/01/19 00:47:09;;;;;;;;;;;;;;;;;;5022939;28;60255;-73
2024/01/19 00:49:34;;;;;;;;;;;;;;;;;;5020443;27;59627;-73
2024/01/19 00:51:59;;;;;;;;;;;;;;;;;;5020395;28;59245;-73
2024/01/19 00:54:24;;;;;;;;;;;;;;;;;;5020020;28;60310;-73
2024/01/19 00:56:49;;;;;;;;;;;;;;;;;;5019838;28;60008;-73
2024/01/19 00:59:14;;;;;;;;;;;;;;;;;;5024003;28;59559;-73
2024/01/19 01:01:40;;;;;;;;;;;;;;;;;;5018451;28;59601;-73
2024/01/19 01:04:05;;;;;;;;;;;;;;;;;;5021024;28;59342;-73
2024/01/19 01:06:30;;;;;;;;;;;;;;;;;;5020735;28;60613;-73
2024/01/19 01:08:56;;;;;;;;;;;;;;;;;;5019603;28;60027;-73
2024/01/19 01:11:21;;;;;;;;;;;;;;;;;;5021935;28;59854;-73
2024/01/19 01:13:46;;;;;;;;;;;;;;;;;;5025016;28;59591;-73
2024/01/19 01:16:12;;;;;;;;;;;;;;;;;;5023410;28;60030;-73
2024/01/19 01:18:37;;;;;;;;;;;;;;;;;;5022609;27;59455;-73
2024/01/19 01:21:02;;;;;;;;;;;;;;;;;;5022619;28;61190;-75
2024/01/19 01:23:27;;;;;;;;;;;;;;;;;;5024123;28;59544;-72
2024/01/19 01:25:52;;;;;;;;;;;;;;;;;;5023811;28;61261;-72
2024/01/19 01:28:17;;;;;;;;;;;;;;;;;;5023974;28;59841;-72
2024/01/19 01:30:42;;;;;;;;;;;;;;;;;;5024185;27;59799;-73
2024/01/19 01:33:07;;;;;;;;;;;;;;;;;;5023560;28;59509;-75
2024/01/19 01:35:33;;;;;;;;;;;;;;;;;;5022088;28;59795;-75
2024/01/19 01:37:58;;;;;;;;;;;;;;;;;;5025489;27;59115;-75
2024/01/19 01:40:23;;;;;;;;;;;;;;;;;;5024891;28;59476;-75
2024/01/19 01:42:49;;;;;;;;;;;;;;;;;;5022158;28;60097;-75
2024/01/19 01:45:14;;;;;;;;;;;;;;;;;;5024212;28;60846;-75
2024/01/19 01:47:39;;;;;;;;;;;;;;;;;;5021303;28;59818;-75
2024/01/19 01:50:04;;;;;;;;;;;;;;;;;;5025029;28;59590;-74
2024/01/19 01:52:29;;;;;;;;;;;;;;;;;;5023980;28;60451;-74
2024/01/19 01:54:54;;;;;;;;;;;;;;;;;;5021216;28;59601;-75
2024/01/19 01:57:20;;;;;;;;;;;;;;;;;;5023646;28;59238;-74
2024/01/19 01:59:45;;;;;;;;;;;;;;;;;;5024522;28;60585;-75
2024/01/19 02:02:10;;;;;;;;;;;;;;;;;;5021835;28;59586;-74
2024/01/19 02:04:35;;;;;;;;;;;;;;;;;;5019931;28;61180;-75
2024/01/19 02:07:00;;;;;;;;;;;;;;;;;;5024319;28;60248;-75
2024/01/19 02:09:25;;;;;;;;;;;;;;;;;;5023143;27;60433;-75
2024/01/19 02:11:50;;;;;;;;;;;;;;;;;;5022319;28;60586;-74
2024/01/19 02:14:15;;;;;;;;;;;;;;;;;;5023622;28;59366;-76
2024/01/19 02:16:40;;;;;;;;;;;;;;;;;;5023345;28;59377;-76
2024/01/19 02:19:05;;;;;;;;;;;;;;;;;;5023343;28;60380;-76
2024/01/19 02:21:31;;;;;;;;;;;;;;;;;;5022519;28;59599;-75
2024/01/19 02:23:56;;;;;;;;;;;;;;;;;;5024099;28;59252;-77
2024/01/19 02:26:21;;;;;;;;;;;;;;;;;;5021332;28;59694;-76
2024/01/19 02:28:47;;;;;;;;;;;;;;;;;;5023756;28;59129;-76
2024/01/19 02:31:12;;;;;;;;;;;;;;;;;;5022290;28;59529;-76
2024/01/19 02:33:37;;;;;;;;;;;;;;;;;;5020507;27;59994;-77
2024/01/19 02:36:02;;;;;;;;;;;;;;;;;;5024862;28;59458;-76
2024/01/19 02:38:27;;;;;;;;;;;;;;;;;;5024479;28;60228;-75
2024/01/19 02:40:52;;;;;;;;;;;;;;;;;;5022573;28;60387;-76
2024/01/19 02:43:17;;;;;;;;;;;;;;;;;;5024451;28;59643;-74
2024/01/19 02:45:42;;;;;;;;;;;;;;;;;;5022973;28;59589;-74
2024/01/19 02:48:09;;;;;;;;;;;;;;;;;;5025085;28;60181;-74
2024/01/19 02:50:34;;;;;;;;;;;;;;;;;;5021310;28;60309;-74
2024/01/19 02:52:59;;;;;;;;;;;;;;;;;;5021299;28;59321;-74
2024/01/19 02:55:24;;;;;;;;;;;;;;;;;;5021965;28;59623;-74
2024/01/19 02:57:49;;;;;;;;;;;;;;;;;;5024020;28;60127;-74
2024/01/19 03:00:14;;;;;;;;;;;;;;;;;;5021542;28;59500;-74
2024/01/19 03:02:39;;;;;;;;;;;;;;;;;;5023948;28;59459;-74
2024/01/19 03:05:05;;;;;;;;;;;;;;;;;;5021041;28;61991;-74
2024/01/19 03:07:30;;;;;;;;;;;;;;;;;;5023702;28;59209;-74
2024/01/19 03:09:55;;;;;;;;;;;;;;;;;;5023118;28;60414;-74
2024/01/19 03:12:20;;;;;;;;;;;;;;;;;;5021218;27;59407;-74
2024/01/19 03:14:45;;;;;;;;;;;;;;;;;;5021833;28;59247;-74
2024/01/19 03:17:10;;;;;;;;;;;;;;;;;;5023769;28;59562;-74
2024/01/19 03:19:35;;;;;;;;;;;;;;;;;;5021405;28;59498;-72
2024/01/19 03:22:00;;;;;;;;;;;;;;;;;;5022882;28;60285;-73
2024/01/19 03:24:25;;;;;;;;;;;;;;;;;;5023070;28;60175;-72
2024/01/19 03:26:50;;;;;;;;;;;;;;;;;;5020292;27;59275;-72
2024/01/19 03:29:15;;;;;;;;;;;;;;;;;;5024517;28;58965;-71
2024/01/19 03:31:41;;;;;;;;;;;;;;;;;;5020297;28;59752;-74
2024/01/19 03:34:06;;;;;;;;;;;;;;;;;;5021643;28;59481;-72
2024/01/19 03:36:31;;;;;;;;;;;;;;;;;;5020922;28;60575;-74
2024/01/19 03:38:56;;;;;;;;;;;;;;;;;;5020394;28;59887;-72
2024/01/19 03:41:21;;;;;;;;;;;;;;;;;;5022168;28;59602;-74
2024/01/19 03:43:46;;;;;;;;;;;;;;;;;;5023648;28;59690;-75
2024/01/19 03:46:11;;;;;;;;;;;;;;;;;;5021818;28;59695;-76
2024/01/19 03:48:36;;;;;;;;;;;;;;;;;;5022240;28;60425;-75
2024/01/19 03:51:01;;;;;;;;;;;;;;;;;;5021045;27;59583;-76
2024/01/19 03:53:26;;;;;;;;;;;;;;;;;;5023146;28;59901;-74
2024/01/19 03:55:51;;;;;;;;;;;;;;;;;;5021972;28;59498;-72
2024/01/19 03:58:16;;;;;;;;;;;;;;;;;;5021721;28;59893;-73
2024/01/19 04:00:42;;;;;;;;;;;;;;;;;;5021905;28;59677;-72
2024/01/19 04:03:07;;;;;;;;;;;;;;;;;;5022999;28;59683;-73
2024/01/19 04:05:32;;;;;;;;;;;;;;;;;;5022091;28;59347;-72
2024/01/19 04:07:57;;;;;;;;;;;;;;;;;;5022385;28;59230;-72
2024/01/19 04:10:22;;;;;;;;;;;;;;;;;;5021853;28;62119;-72
2024/01/19 04:12:47;;;;;;;;;;;;;;;;;;5023363;28;59371;-72
2024/01/19 04:15:12;;;;;;;;;;;;;;;;;;5021014;28;60242;-72
2024/01/19 04:17:37;;;;;;;;;;;;;;;;;;5021957;28;59643;-72
2024/01/19 04:20:04;;;;;;;;;;;;;;;;;;5020372;28;59532;-72
2024/01/19 04:22:29;;;;;;;;;;;;;;;;;;5021393;28;60299;-74
2024/01/19 04:24:54;;;;;;;;;;;;;;;;;;5021183;28;59201;-73
2024/01/19 04:27:21;;;;;;;;;;;;;;;;;;5021880;28;59415;-72
2024/01/19 04:29:46;;;;;;;;;;;;;;;;;;5021834;28;60387;-72
2024/01/19 04:32:11;;;;;;;;;;;;;;;;;;5022882;28;60278;-72
2024/01/19 04:34:37;;;;;;;;;;;;;;;;;;5020911;28;60285;-72
2024/01/19 04:37:02;;;;;;;;;;;;;;;;;;5021942;28;59189;-72
2024/01/19 04:39:27;;;;;;;;;;;;;;;;;;5021426;28;59032;-72
2024/01/19 04:41:52;;;;;;;;;;;;;;;;;;5020403;27;59411;-73
2024/01/19 04:44:17;;;;;;;;;;;;;;;;;;5020644;28;59943;-73
2024/01/19 04:46:42;;;;;;;;;;;;;;;;;;5020972;28;59453;-73
2024/01/19 04:49:07;;;;;;;;;;;;;;;;;;5020895;28;60354;-72
2024/01/19 04:51:32;;;;;;;;;;;;;;;;;;5019301;28;59552;-72
2024/01/19 04:53:59;;;;;;;;;;;;;;;;;;5019738;28;60048;-72
2024/01/19 04:56:24;;;;;;;;;;;;;;;;;;5020541;28;59289;-73
2024/01/19 04:58:49;;;;;;;;;;;;;;;;;;5020177;28;59560;-72
2024/01/19 05:01:14;;;;;;;;;;;;;;;;;;5020376;28;60155;-72
2024/01/19 05:03:41;;;;;;;;;;;;;;;;;;5018500;28;59266;-75
2024/01/19 05:06:06;;;;;;;;;;;;;;;;;;5022679;28;59436;-74
2024/01/19 05:08:31;;;;;;;;;;;;;;;;;;5019638;28;60076;-74
2024/01/19 05:10:56;;;;;;;;;;;;;;;;;;5018852;28;59808;-75
2024/01/19 05:13:21;;;;;;;;;;;;;;;;;;5020084;28;59562;-74
2024/01/19 05:15:46;;;;;;;;;;;;;;;;;;5021526;27;60887;-74
2024/01/19 05:18:12;;;;;;;;;;;;;;;;;;5019477;27;59598;-74
2024/01/19 05:20:38;;;;;;;;;;;;;;;;;;5022248;28;59542;-74
2024/01/19 05:23:03;;;;;;;;;;;;;;;;;;5020583;28;59213;-75
2024/01/19 05:25:28;;;;;;;;;;;;;;;;;;5020422;28;59322;-74
2024/01/19 05:27:54;;;;;;;;;;;;;;;;;;5020242;28;59602;-74
2024/01/19 05:30:19;;;;;;;;;;;;;;;;;;5019321;28;59779;-74
2024/01/19 05:32:44;;;;;;;;;;;;;;;;;;5018491;28;59644;-75
2024/01/19 05:35:09;;;;;;;;;;;;;;;;;;5015229;28;59991;-74
2024/01/19 05:37:34;;;;;;;;;;;;;;;;;;5017102;28;59927;-73
2024/01/19 05:39:59;;;;;;;;;;;;;;;;;;5016726;28;60551;-74
2024/01/19 05:42:25;;;;;;;;;;;;;;;;;;5017637;28;59621;-74
2024/01/19 05:44:50;;;;;;;;;;;;;;;;;;5020437;28;59205;-74
2024/01/19 05:47:15;;;;;;;;;;;;;;;;;;5019058;28;59579;-74
2024/01/19 05:49:40;;;;;;;;;;;;;;;;;;5019385;28;59201;-75
2024/01/19 05:52:05;;;;;;;;;;;;;;;;;;5018248;28;59183;-74
2024/01/19 05:54:30;;;;;;;;;;;;;;;;;;5017256;28;59502;-74
2024/01/19 05:56:55;;;;;;;;;;;;;;;;;;5019255;28;59846;-74
2024/01/19 05:59:20;;;;;;;;;;;;;;;;;;5024572;28;59555;-74
2024/01/19 06:01:45;;;;;;;;;;;;;;;;;;5021400;28;59698;-72
2024/01/19 06:04:10;;;;;;;;;;;;;;;;;;5023346;28;59221;-72
2024/01/19 06:06:36;;;;;;;;;;;;;;;;;;5023556;28;59379;-74
2024/01/19 06:09:02;;;;;;;;;;;;;;;;;;5022079;28;59392;-72
2024/01/19 06:11:27;;;;;;;;;;;;;;;;;;5022504;28;59214;-72
2024/01/19 06:13:52;;;;;;;;;;;;;;;;;;5023408;28;60484;-72
2024/01/19 06:16:17;;;;;;;;;;;;;;;;;;5017504;28;58817;-72
2024/01/19 06:18:42;;;;;;;;;;;;;;;;;;5022528;28;59739;-72
2024/01/19 06:21:07;;;;;;;;;;;;;;;;;;5023928;28;59852;-72
2024/01/19 06:23:32;;;;;;;;;;;;;;;;;;5023311;28;59199;-72
2024/01/19 06:25:58;;;;;;;;;;;;;;;;;;5024685;27;60631;-73
2024/01/19 06:28:23;;;;;;;;;;;;;;;;;;5021679;28;59632;-73
2024/01/19 06:30:48;;;;;;;;;;;;;;;;;;5023469;28;59237;-73
2024/01/19 06:33:13;;;;;;;;;;;;;;;;;;5022821;28;59273;-73
2024/01/19 06:35:38;;;;;;;;;;;;;;;;;;5023275;28;59623;-72
2024/01/19 06:38:04;;;;;;;;;;;;;;;;;;5024709;28;59631;-72
2024/01/19 06:40:29;;;;;;;;;;;;;;;;;;5023121;28;60402;-73
2024/01/19 06:42:54;;;;;;;;;;;;;;;;;;5022867;28;59525;-73
2024/01/19 06:45:19;;;;;;;;;;;;;;;;;;5023166;27;61302;-73
2024/01/19 06:47:45;;;;;;;;;;;;;;;;;;5022875;28;59396;-72
2024/01/19 06:50:10;;;;;;;;;;;;;;;;;;5025006;28;59142;-72
2024/01/19 06:52:35;;;;;;;;;;;;;;;;;;5021947;28;60581;-72
2024/01/19 06:55:00;;;;;;;;;;;;;;;;;;5022125;27;59800;-73
2024/01/19 06:57:25;;;;;;;;;;;;;;;;;;5021436;28;60704;-73
2024/01/19 06:59:50;;;;;;;;;;;;;;;;;;5024179;28;60977;-73
2024/01/19 07:02:15;;;;;;;;;;;;;;;;;;5023818;28;59708;-72
2024/01/19 07:04:40;;;;;;;;;;;;;;;;;;5024207;28;59613;-72
2024/01/19 07:07:05;;;;;;;;;;;;;;;;;;5022460;27;59321;-71
2024/01/19 07:09:30;;;;;;;;;;;;;;;;;;5022644;28;59202;-72
2024/01/19 07:11:56;;;;;;;;;;;;;;;;;;5021932;28;60203;-72
2024/01/19 07:14:21;;;;;;;;;;;;;;;;;;5022577;28;59806;-72
2024/01/19 07:16:46;;;;;;;;;;;;;;;;;;5022916;28;59823;-74
2024/01/19 07:19:11;;;;;;;;;;;;;;;;;;5023843;28;59191;-72
2024/01/19 07:21:36;;;;;;;;;;;;;;;;;;5022044;27;60591;-74
2024/01/19 07:24:01;;;;;;;;;;;;;;;;;;5023157;28;59273;-75
2024/01/19 07:26:26;;;;;;;;;;;;;;;;;;5020678;28;59782;-74
2024/01/19 07:28:52;;;;;;;;;;;;;;;;;;5023838;28;59263;-74
2024/01/19 07:31:17;;;;;;;;;;;;;;;;;;5022544;28;60436;-74
2024/01/19 07:33:42;;;;;;;;;;;;;;;;;;5019567;28;60337;-74
2024/01/19 07:36:07;;;;;;;;;;;;;;;;;;5021775;28;59698;-73
2024/01/19 07:38:32;;;;;;;;;;;;;;;;;;5024710;28;59350;-73
2024/01/19 07:40:58;;;;;;;;;;;;;;;;;;5018173;28;59170;-73
2024/01/19 07:43:23;;;;;;;;;;;;;;;;;;5020739;28;60082;-73
2024/01/19 07:45:48;;;;;;;;;;;;;;;;;;5022383;28;59718;-73
2024/01/19 07:48:14;;;;;;;;;;;;;;;;;;5024029;28;59344;-72
2024/01/19 07:50:39;;;;;;;;;;;;;;;;;;5022946;28;60578;-72
2024/01/19 07:53:04;;;;;;;;;;;;;;;;;;5022785;28;59942;-73
2024/01/19 07:55:29;;;;;;;;;;;;;;;;;;5020438;28;59669;-74
2024/01/19 07:57:54;;;;;;;;;;;;;;;;;;5023142;27;59375;-72
2024/01/19 08:00:20;;;;;;;;;;;;;;;;;;5019881;28;59368;-73
2024/01/19 08:02:45;;;;;;;;;;;;;;;;;;5022010;28;59380;-73
2024/01/19 08:05:10;;;;;;;;;;;;;;;;;;5021235;28;60325;-73
2024/01/19 08:07:37;;;;;;;;;;;;;;;;;;5022899;28;59183;-72
2024/01/19 08:10:02;;;;;;;;;;;;;;;;;;5021189;27;61346;-73
2024/01/19 08:12:27;;;;;;;;;;;;;;;;;;5023025;28;59804;-72
2024/01/19 08:14:55;;;;;;;;;;;;;;;;;;5019720;28;59435;-72
2024/01/19 08:17:20;;;;;;;;;;;;;;;;;;5022443;28;60633;-72
2024/01/19 08:19:45;;;;;;;;;;;;;;;;;;5021650;28;59398;-73
2024/01/19 08:22:10;;;;;;;;;;;;;;;;;;5023500;28;59272;-72
2024/01/19 08:24:35;;;;;;;;;;;;;;;;;;5022174;28;59247;-72
2024/01/19 08:27:01;;;;;;;;;;;;;;;;;;5022097;28;59592;-72
2024/01/19 08:29:26;;;;;;;;;;;;;;;;;;5022608;28;60194;-72
2024/01/19 08:31:51;;;;;;;;;;;;;;;;;;5019830;28;59472;-73
2024/01/19 08:34:16;;;;;;;;;;;;;;;;;;5022948;28;59333;-72
2024/01/19 08:36:41;;;;;;;;;;;;;;;;;;5019441;28;61871;-72
2024/01/19 08:39:09;;;;;;;;;;;;;;;;;;5020405;28;59743;-73
2024/01/19 08:41:34;;;;;;;;;;;;;;;;;;5020410;28;59286;-72
2024/01/19 08:43:59;;;;;;;;;;;;;;;;;;5021558;28;60922;-73
2024/01/19 08:46:24;;;;;;;;;;;;;;;;;;5020405;28;59500;-73
2024/01/19 08:48:49;;;;;;;;;;;;;;;;;;5022828;28;59458;-73
2024/01/19 08:51:14;;;;;;;;;;;;;;;;;;5018815;28;60080;-73
2024/01/19 08:53:39;;;;;;;;;;;;;;;;;;5021351;28;59128;-72
2024/01/19 08:56:04;;;;;;;;;;;;;;;;;;5021014;28;61230;-73
2024/01/19 08:58:31;;;;;;;;;;;;;;;;;;5019571;28;60102;-72
2024/01/19 09:00:57;;;;;;;;;;;;;;;;;;5018919;28;59595;-73
2024/01/19 09:03:22;;;;;;;;;;;;;;;;;;5018672;28;60542;-73
2024/01/19 09:05:47;;;;;;;;;;;;;;;;;;5021431;28;59373;-72
2024/01/19 09:08:12;;;;;;;;;;;;;;;;;;5022171;28;59230;-72
2024/01/19 09:10:37;;;;;;;;;;;;;;;;;;5018906;28;60088;-72
2024/01/19 09:13:02;;;;;;;;;;;;;;;;;;5021703;28;59595;-73
2024/01/19 09:15:27;;;;;;;;;;;;;;;;;;5021844;28;60949;-73
2024/01/19 09:17:52;;;;;;;;;;;;;;;;;;5020631;27;59505;-73
2024/01/19 09:20:18;;;;;;;;;;;;;;;;;;5021691;28;59229;-72
2024/01/19 09:22:43;;;;;;;;;;;;;;;;;;5016872;28;59689;-73
2024/01/19 09:25:08;;;;;;;;;;;;;;;;;;5019325;28;59583;-72
2024/01/19 09:27:33;;;;;;;;;;;;;;;;;;5020292;28;59657;-72
2024/01/19 09:29:58;;;;;;;;;;;;;;;;;;5020540;28;60117;-72
2024/01/19 09:32:23;;;;;;;;;;;;;;;;;;5021329;28;60811;-76
2024/01/19 09:34:48;;;;;;;;;;;;;;;;;;5023900;28;59696;-74
2024/01/19 09:37:14;;;;;;;;;;;;;;;;;;5024025;28;60337;-76
2024/01/19 09:39:39;;;;;;;;;;;;;;;;;;5023370;28;59233;-74
2024/01/19 09:42:04;;;;;;;;;;;;;;;;;;5025301;28;60497;-74
2024/01/19 09:44:29;;;;;;;;;;;;;;;;;;5023788;28;59317;-74
2024/01/19 09:46:55;;;;;;;;;;;;;;;;;;5024562;28;59128;-76
2024/01/19 09:49:20;;;;;;;;;;;;;;;;;;5025208;28;60297;-74
2024/01/19 09:51:45;;;;;;;;;;;;;;;;;;5022979;27;59932;-74
2024/01/19 09:54:10;;;;;;;;;;;;;;;;;;5023827;28;59257;-74
2024/01/19 09:56:36;;;;;;;;;;;;;;;;;;5024291;28;60098;-74
2024/01/19 09:59:01;;;;;;;;;;;;;;;;;;5022376;28;59736;-74
2024/01/19 10:01:26;;;;;;;;;;;;;;;;;;5024000;28;60742;-74
2024/01/19 10:03:51;;;;;;;;;;;;;;;;;;5024044;27;60288;-74
2024/01/19 10:06:16;;;;;;;;;;;;;;;;;;5023944;28;59402;-76
2024/01/19 10:08:41;;;;;;;;;;;;;;;;;;5022257;28;60179;-75
2024/01/19 10:11:06;;;;;;;;;;;;;;;;;;5024425;28;59255;-76
2024/01/19 10:13:31;;;;;;;;;;;;;;;;;;5025013;28;59194;-76
2024/01/19 10:15:56;;;;;;;;;;;;;;;;;;5023460;27;59313;-74
2024/01/19 10:18:22;;;;;;;;;;;;;;;;;;5025551;28;59293;-76
2024/01/19 10:20:47;;;;;;;;;;;;;;;;;;5023705;28;59558;-74
2024/01/19 10:23:12;;;;;;;;;;;;;;;;;;5021255;28;60831;-73
2024/01/19 10:25:37;;;;;;;;;;;;;;;;;;5021249;28;59583;-74
2024/01/19 10:28:02;;;;;;;;;;;;;;;;;;5024196;28;59338;-74
2024/01/19 10:30:27;;;;;;;;;;;;;;;;;;5022248;28;59318;-76
2024/01/19 10:32:52;;;;;;;;;;;;;;;;;;5022433;28;59228;-75
2024/01/19 10:35:18;;;;;;;;;;;;;;;;;;5023720;28;60352;-74
2024/01/19 10:37:43;;;;;;;;;;;;;;;;;;5023707;27;59677;-74
2024/01/19 10:40:08;;;;;;;;;;;;;;;;;;5024019;27;60117;-74
2024/01/19 10:42:33;;;;;;;;;;;;;;;;;;5020528;28;59718;-74
2024/01/19 10:44:58;;;;;;;;;;;;;;;;;;5022118;28;59874;-74
2024/01/19 10:47:23;;;;;;;;;;;;;;;;;;5023482;28;61543;-74
2024/01/19 10:49:48;;;;;;;;;;;;;;;;;;5020674;28;59799;-74
2024/01/19 10:52:13;;;;;;;;;;;;;;;;;;5025292;28;59545;-72
2024/01/19 10:54:38;;;;;;;;;;;;;;;;;;5023779;28;59738;-72
2024/01/19 10:57:04;;;;;;;;;;;;;;;;;;5021456;28;59256;-73
2024/01/19 10:59:29;;;;;;;;;;;;;;;;;;5023670;28;60594;-72
2024/01/19 11:01:54;;;;;;;;;;;;;;;;;;5022025;28;60404;-74
2024/01/19 11:04:19;;;;;;;;;;;;;;;;;;5023929;28;59569;-74
2024/01/19 11:06:44;;;;;;;;;;;;;;;;;;5022138;28;60688;-74
2024/01/19 11:09:09;;;;;;;;;;;;;;;;;;5023927;28;59280;-74
2024/01/19 11:11:34;;;;;;;;;;;;;;;;;;5023166;28;59300;-74
2024/01/19 11:13:59;;;;;;;;;;;;;;;;;;5021886;28;60885;-74
2024/01/19 11:16:24;;;;;;;;;;;;;;;;;;5020636;28;59761;-73
2024/01/19 11:18:49;;;;;;;;;;;;;;;;;;5022633;28;59392;-74
2024/01/19 11:21:14;;;;;;;;;;;;;;;;;;5020734;28;59999;-74
2024/01/19 11:23:39;;;;;;;;;;;;;;;;;;5022130;28;59168;-74
2024/01/19 11:26:05;;;;;;;;;;;;;;;;;;5022190;28;61638;-74
2024/01/19 11:28:30;;;;;;;;;;;;;;;;;;5021534;28;60181;-74
2024/01/19 11:30:55;;;;;;;;;;;;;;;;;;5022531;28;59572;-74
2024/01/19 11:33:20;;;;;;;;;;;;;;;;;;5022461;28;60072;-74
2024/01/19 11:35:48;;;;;;;;;;;;;;;;;;5022589;28;59383;-74
2024/01/19 11:38:13;;;;;;;;;;;;;;;;;;5024090;28;59241;-74
2024/01/19 11:40:38;;;;;;;;;;;;;;;;;;5023911;27;60604;-74
2024/01/19 11:43:04;;;;;;;;;;;;;;;;;;5022597;28;59584;-74
2024/01/19 11:45:29;;;;;;;;;;;;;;;;;;5022337;28;60162;-74
2024/01/19 11:47:54;;;;;;;;;;;;;;;;;;5021769;28;59877;-73
2024/01/19 11:50:19;;;;;;;;;;;;;;;;;;5024391;28;59253;-74
2024/01/19 11:52:44;;;;;;;;;;;;;;;;;;5021362;28;60291;-74
2024/01/19 11:55:09;;;;;;;;;;;;;;;;;;5021944;28;59667;-75
2024/01/19 11:57:35;;;;;;;;;;;;;;;;;;5022259;28;59257;-74
2024/01/19 12:00:00;;;;;;;;;;;;;;;;;;5021832;28;59195;-74
2024/01/19 12:02:27;;;;;;;;;;;;;;;;;;5020324;28;59785;-73
2024/01/19 12:04:52;;;;;;;;;;;;;;;;;;5022769;28;60487;-73
2024/01/19 12:07:17;;;;;;;;;;;;;;;;;;5020252;28;59742;-73
2024/01/19 12:09:42;;;;;;;;;;;;;;;;;;5022012;28;59464;-73
2024/01/19 12:12:07;;;;;;;;;;;;;;;;;;5023207;28;59522;-73
2024/01/19 12:14:32;;;;;;;;;;;;;;;;;;5022169;28;59515;-73
2024/01/19 12:16:58;;;;;;;;;;;;;;;;;;5020587;28;59332;-72
2024/01/19 12:19:23;;;;;;;;;;;;;;;;;;5021409;28;60666;-72
2024/01/19 12:21:48;;;;;;;;;;;;;;;;;;5021528;28;59367;-72
2024/01/19 12:24:13;;;;;;;;;;;;;;;;;;5022016;28;59578;-72
2024/01/19 12:26:38;;;;;;;;;;;;;;;;;;5022347;28;59500;-72
2024/01/19 12:29:04;;;;;;;;;;;;;;;;;;5020364;28;77025;-73
2024/01/19 12:31:36;;;;;;;;;;;;;;;;;;5019938;28;59729;-72
2024/01/19 12:34:01;;;;;;;;;;;;;;;;;;5021357;28;59539;-72
2024/01/19 12:36:27;;;;;;;;;;;;;;;;;;5021020;28;59385;-74
2024/01/19 12:38:52;;;;;;;;;;;;;;;;;;5019889;28;61143;-72
2024/01/19 12:41:17;;;;;;;;;;;;;;;;;;5020656;28;59149;-73
2024/01/19 12:43:42;;;;;;;;;;;;;;;;;;5022600;28;59452;-74
2024/01/19 12:46:08;;;;;;;;;;;;;;;;;;5018359;28;60108;-72
2024/01/19 12:48:34;;;;;;;;;;;;;;;;;;5019879;28;59466;-73
2024/01/19 12:50:59;;;;;;;;;;;;;;;;;;5021443;28;60200;-72
2024/01/19 12:53:25;;;;;;;;;;;;;;;;;;5020286;28;59170;-73
2024/01/19 12:55:51;;;;;;;;;;;;;;;;;;5017362;28;59543;-72
2024/01/19 12:58:16;;;;;;;;;;;;;;;;;;5018326;28;60472;-73
2024/01/19 13:00:42;;;;;;;;;;;;;;;;;;5015581;28;59423;-72
2024/01/19 13:03:07;;;;;;;;;;;;;;;;;;5021070;28;59252;-72
2024/01/19 13:05:32;;;;;;;;;;;;;;;;;;5020923;28;61315;-72
2024/01/19 13:07:58;;;;;;;;;;;;;;;;;;5021207;28;59690;-73
2024/01/19 13:10:23;;;;;;;;;;;;;;;;;;5022847;28;60565;-72
2024/01/19 13:12:49;;;;;;;;;;;;;;;;;;5022229;28;59581;-74
2024/01/19 13:15:14;;;;;;;;;;;;;;;;;;5021412;28;59405;-74
2024/01/19 13:17:39;;;;;;;;;;;;;;;;;;5022710;28;59686;-74
2024/01/19 13:20:04;;;;;;;;;;;;;;;;;;5024044;28;59415;-75
2024/01/19 13:22:29;;;;;;;;;;;;;;;;;;5024619;27;59895;-72
2024/01/19 13:24:54;;;;;;;;;;;;;;;;;;5023923;28;60304;-74
2024/01/19 13:27:20;;;;;;;;;;;;;;;;;;5024016;28;59440;-72
2024/01/19 13:29:45;;;;;;;;;;;;;;;;;;5023378;28;60491;-72
2024/01/19 13:32:10;;;;;;;;;;;;;;;;;;5024452;28;59487;-72
2024/01/19 13:34:35;;;;;;;;;;;;;;;;;;5023727;28;59588;-72
2024/01/19 13:37:00;;;;;;;;;;;;;;;;;;5025108;28;61183;-72
2024/01/19 13:39:25;;;;;;;;;;;;;;;;;;5023273;28;59499;-71
2024/01/19 13:41:50;;;;;;;;;;;;;;;;;;5023558;28;59330;-72
2024/01/19 13:44:15;;;;;;;;;;;;;;;;;;5023806;28;60583;-72
2024/01/19 13:46:40;;;;;;;;;;;;;;;;;;5020988;28;59459;-73
2024/01/19 13:49:05;;;;;;;;;;;;;;;;;;5026683;28;59245;-72
2024/01/19 13:51:30;;;;;;;;;;;;;;;;;;5023638;27;59687;-73
2024/01/19 13:53:55;;;;;;;;;;;;;;;;;;5020937;28;59437;-72
2024/01/19 13:56:20;;;;;;;;;;;;;;;;;;5023352;28;59387;-72
2024/01/19 13:58:45;;;;;;;;;;;;;;;;;;5020984;28;59379;-72
2024/01/19 14:01:11;;;;;;;;;;;;;;;;;;5021982;28;59294;-72
2024/01/19 14:03:36;;;;;;;;;;;;;;;;;;5021475;28;60206;-72
2024/01/19 14:06:01;;;;;;;;;;;;;;;;;;5022892;28;61198;-73
2024/01/19 14:08:26;;;;;;;;;;;;;;;;;;5026994;28;59757;-74
2024/01/19 14:10:52;;;;;;;;;;;;;;;;;;5022615;28;61538;-73
2024/01/19 14:13:17;;;;;;;;;;;;;;;;;;5020235;28;59193;-73
2024/01/19 14:15:44;;;;;;;;;;;;;;;;;;5019049;27;61245;-73
2024/01/19 14:18:09;;;;;;;;;;;;;;;;;;5021216;28;59476;-73
2024/01/19 14:20:34;;;;;;;;;;;;;;;;;;5024877;28;59467;-73
2024/01/19 14:22:59;;;;;;;;;;;;;;;;;;5024078;28;60295;-75
2024/01/19 14:25:24;;;;;;;;;;;;;;;;;;5019238;28;59471;-75
2024/01/19 14:27:49;;;;;;;;;;;;;;;;;;5021446;27;59641;-74
2024/01/19 14:30:14;;;;;;;;;;;;;;;;;;5023299;28;59546;-74
2024/01/19 14:32:40;;;;;;;;;;;;;;;;;;5023041;28;59700;-75
2024/01/19 14:35:05;;;;;;;;;;;;;;;;;;5023862;28;60147;-75
2024/01/19 14:37:30;;;;;;;;;;;;;;;;;;5020050;28;59716;-75
2024/01/19 14:39:55;;;;;;;;;;;;;;;;;;5021686;28;59695;-75
2024/01/19 14:42:20;;;;;;;;;;;;;;;;;;5018786;28;60070;-75
2024/01/19 14:44:45;;;;;;;;;;;;;;;;;;5019445;28;60033;-75
2024/01/19 14:47:10;;;;;;;;;;;;;;;;;;5022429;28;59279;-75
2024/01/19 14:49:35;;;;;;;;;;;;;;;;;;5018314;28;60323;-75
2024/01/19 14:52:00;;;;;;;;;;;;;;;;;;5019439;28;64017;-79
2024/01/19 14:54:25;;;;;;;;;;;;;;;;;;5020446;28;59747;-79
2024/01/19 14:56:50;;;;;;;;;;;;;;;;;;5019553;27;59460;-80
2024/01/19 14:59:16;;;;;;;;;;;;;;;;;;5020235;28;59210;-79
2024/01/19 15:01:41;;;;;;;;;;;;;;;;;;5021402;28;60783;-77
2024/01/19 15:04:06;;;;;;;;;;;;;;;;;;5020734;28;59431;-78
2024/01/19 15:06:31;;;;;;;;;;;;;;;;;;5022698;28;59311;-79
2024/01/19 15:08:56;;;;;;;;;;;;;;;;;;5022648;28;60268;-79
2024/01/19 15:11:21;;;;;;;;;;;;;;;;;;5023664;28;59734;-80
2024/01/19 15:13:46;;;;;;;;;;;;;;;;;;5022049;28;59265;-82
2024/01/19 15:16:11;;;;;;;;;;;;;;;;;;5020395;27;59907;-81
2024/01/19 15:18:36;;;;;;;;;;;;;;;;;;5021414;28;59170;-79
2024/01/19 15:21:01;;;;;;;;;;;;;;;;;;5021992;28;60115;-80
2024/01/19 15:23:26;;;;;;;;;;;;;;;;;;5021068;28;59513;-79
2024/01/19 15:25:51;;;;;;;;;;;;;;;;;;5022869;28;59222;-77
2024/01/19 15:28:17;;;;;;;;;;;;;;;;;;5022947;28;60493;-78
2024/01/19 15:30:42;;;;;;;;;;;;;;;;;;5020098;28;59615;-79
2024/01/19 15:33:07;;;;;;;;;;;;;;;;;;5023736;28;59568;-77
2024/01/19 15:35:32;;;;;;;;;;;;;;;;;;5020829;28;60190;-78
2024/01/19 15:37:57;;;;;;;;;;;;;;;;;;5022436;28;59618;-77
2024/01/19 15:40:22;;;;;;;;;;;;;;;;;;5019656;28;60174;-78
2024/01/19 15:42:47;;;;;;;;;;;;;;;;;;5018055;28;60505;-78
2024/01/19 15:45:12;;;;;;;;;;;;;;;;;;5020260;28;60499;-75
2024/01/19 15:47:37;;;;;;;;;;;;;;;;;;5021929;28;60625;-75
2024/01/19 15:50:04;;;;;;;;;;;;;;;;;;5022879;28;59936;-78
2024/01/19 15:52:29;;;;;;;;;;;;;;;;;;5020445;28;59392;-78
2024/01/19 15:54:55;;;;;;;;;;;;;;;;;;5021830;28;61359;-78
2024/01/19 15:57:20;;;;;;;;;;;;;;;;;;5022025;27;59454;-78
2024/01/19 15:59:45;;;;;;;;;;;;;;;;;;5022340;27;60635;-78
2024/01/19 16:02:10;;;;;;;;;;;;;;;;;;5022396;28;59610;-78
2024/01/19 16:04:36;;;;;;;;;;;;;;;;;;5022006;28;58585;-72
2024/01/19 16:07:01;;;;;;;;;;;;;;;;;;5021881;27;60168;-73
2024/01/19 16:09:26;;;;;;;;;;;;;;;;;;5018946;28;59353;-72
2024/01/19 16:11:51;;;;;;;;;;;;;;;;;;5021271;27;59442;-72
2024/01/19 16:14:16;;;;;;;;;;;;;;;;;;5022951;28;60311;-73
2024/01/19 16:16:41;;;;;;;;;;;;;;;;;;5020476;28;59812;-73
2024/01/19 16:19:06;;;;;;;;;;;;;;;;;;5021854;28;59412;-73
2024/01/19 16:21:31;;;;;;;;;;;;;;;;;;5020578;28;59188;-73
2024/01/19 16:23:56;;;;;;;;;;;;;;;;;;5021009;28;59212;-73
2024/01/19 16:26:21;;;;;;;;;;;;;;;;;;5022265;28;60186;-73
2024/01/19 16:28:46;;;;;;;;;;;;;;;;;;5018190;27;59247;-73
2024/01/19 16:31:11;;;;;;;;;;;;;;;;;;5021528;28;59230;-72